Matao, Brazil
Current Conditions -  °F | °C
As of 10:00 AM on Monday 22 Dec 2014 (Local Time) from SBAQ Reporting Station
Broken Clouds Broken Clouds  
Wind Chill: 79°   Ceiling: 700
Heat Index: 82°   Visibility: 6mi
Dew Point: 73°   Wind: 12mph
Humidity: 83%   Direction: 360°N
Pressure: 30.03"   Gusts: NA
Location:  21.58°S, 48.37°W
Report Text: SBAQ 221200Z 36010KT 9999 BKN007 BKN080 26/23 Q1017
Loading
Personal Weather Stations






























Interactive Weather Map New forecast layout! Learn more

10-Day Weather Forecast

Advertisements
Track Severe Weather on mobile